Date,TemperatureHighF,TemperatureAvgF,TemperatureLowF,DewpointHighF,DewpointAvgF,DewpointLowF,HumidityHigh,HumidityAvg,HumidityLow,PressureMaxIn,PressureMinIn,WindSpeedMaxMPH,WindSpeedAvgMPH,GustSpeedMaxMPH,PrecipitationSumIn
2013-1-1,35,30,18,27,17,6,74,60,45,29.92,29.67,32,17,37,0.00
2013-1-2,25,18,7,17,7,-5,71,62,50,30.11,29.88,26,14,30,0.00
2013-1-3,23,12,4,8,0,-5,74,57,34,30.12,29.98,22,11,25,0.00
2013-1-4,47,30,16,31,21,7,81,69,51,29.97,29.76,26,12,28,0.00
2013-1-5,38,33,24,26,21,16,84,61,42,30.26,29.78,30,11,34,0.00
2013-1-6,41,32,23,30,26,18,91,77,59,30.22,29.91,18,7,22,0.00
2013-1-7,35,32,26,31,27,23,91,82,71,30.39,29.93,17,7,19,0.00
2013-1-8,44,36,26,30,27,24,92,72,49,30.35,30.22,24,10,33,0.00
2013-1-9,44,36,27,35,29,24,87,76,62,30.40,29.94,25,8,33,0.00
2013-1-10,44,41,33,32,27,24,74,58,48,30.52,29.97,45,18,53,0.00
2013-1-11,40,35,27,37,30,23,93,81,71,30.50,30.22,15,5,19,0.10
2013-1-12,43,41,39,42,40,37,98,96,94,30.22,30.11,14,3,15,0.01
2013-1-13,51,45,41,48,44,40,98,97,91,30.14,29.95,15,5,16,0.00
2013-1-14,60,51,40,50,43,28,96,77,49,30.23,29.80,22,12,29,0.00
2013-1-15,40,37,33,31,27,25,79,69,61,30.30,30.21,12,5,14,0.00
2013-1-16,33,31,28,31,28,24,97,91,70,30.24,29.80,8,5,10,0.00
2013-1-17,41,33,27,33,26,9,97,76,46,30.09,29.80,24,11,27,0.12
2013-1-18,27,20,14,13,1,-9,61,44,32,30.43,30.05,29,14,34,0.00
2013-1-19,46,36,20,31,22,8,76,57,43,30.37,29.86,34,14,40,0.00
2013-1-20,52,40,28,33,25,11,77,56,26,29.89,29.47,42,20,52,0.00
2013-1-21,28,24,20,20,9,1,88,54,39,30.07,29.78,24,11,31,0.00
2013-1-22,24,20,13,20,10,-3,88,67,33,30.06,29.74,31,14,32,0.00
2013-1-23,13,8,3,3,-6,-11,71,51,36,30.14,30.05,28,15,35,0.00
2013-1-24,15,8,0,-2,-9,-13,62,48,32,30.18,30.02,39,22,42,0.00
2013-1-25,21,14,7,0,-4,-7,60,46,30,30.26,30.06,32,16,37,0.00
2013-1-26,22,16,12,11,4,-6,86,60,30,30.19,29.99,30,14,34,0.00
2013-1-27,27,19,13,7,1,-6,68,46,24,30.45,30.18,31,18,36,0.00
2013-1-28,28,22,18,26,10,-2,95,61,28,30.44,30.02,15,5,17,0.00
2013-1-29,33,28,23,31,26,21,95,89,80,30.19,30.03,10,4,12,0.01
2013-1-30,60,46,32,57,44,31,100,95,86,30.15,29.44,27,9,34,0.20
2013-1-31,62,47,31,58,36,14,98,69,39,29.53,28.89,54,26,65,0.02
2013-2-1,31,28,20,18,11,5,64,50,35,30.05,29.53,31,20,38,0.00
2013-2-2,28,23,17,14,8,4,66,53,40,30.22,30.03,17,8,23,0.00
2013-2-3,27,24,22,21,18,13,91,78,56,30.04,29.70,15,9,18,0.00
2013-2-4,29,25,21,19,11,4,83,57,36,29.90,29.69,33,17,37,0.00
2013-2-5,28,23,18,23,11,5,84,59,44,30.03,29.90,13,7,17,0.00
2013-2-6,42,30,22,33,24,19,93,78,50,30.30,29.92,22,6,26,0.02
2013-2-7,29,23,16,24,5,-6,84,48,26,30.52,30.28,21,7,26,0.00
2013-2-8,32,25,17,30,22,14,96,87,62,30.50,29.67,42,19,49,0.00
2013-2-9,24,18,14,18,13,6,91,79,59,30.16,29.59,45,26,54,0.00
2013-2-10,37,24,13,19,6,1,74,48,25,30.38,30.16,21,8,23,0.00
2013-2-11,39,30,21,38,27,13,97,88,65,30.34,29.58,18,3,21,0.34
2013-2-12,43,38,34,35,30,27,97,74,54,29.83,29.56,28,14,37,0.00
2013-2-13,41,35,30,29,25,23,86,68,50,29.85,29.70,16,6,18,0.00
2013-2-14,46,35,31,30,25,19,82,66,42,29.98,29.68,17,7,19,0.00
2013-2-15,51,38,29,37,31,24,91,75,51,29.98,29.88,21,7,24,0.00
2013-2-16,39,34,31,33,28,19,95,79,55,29.94,29.71,19,8,23,0.00
2013-2-17,31,22,16,19,11,3,90,62,41,29.71,29.31,56,28,57,0.00
2013-2-18,30,22,14,7,2,-2,66,44,25,30.11,29.59,42,24,52,0.00
2013-2-19,41,33,23,40,22,4,96,66,39,30.13,29.55,20,9,25,0.47
2013-2-20,40,33,27,40,23,14,97,68,47,29.73,29.48,33,18,37,0.01
2013-2-21,29,26,24,19,14,10,71,61,51,30.16,29.70,30,19,35,0.00
2013-2-22,36,30,23,26,22,17,80,71,59,30.38,30.15,20,8,24,0.00
2013-2-23,38,35,31,35,30,26,92,82,75,30.33,29.94,19,6,22,0.03
2013-2-24,38,34,29,36,32,29,97,96,91,29.94,29.71,26,11,28,0.19
2013-2-25,36,32,28,34,30,28,97,94,87,30.23,29.89,9,3,13,0.11
2013-2-26,42,36,30,37,32,29,96,86,69,30.34,30.18,16,3,20,0.01
2013-2-27,42,39,36,39,36,32,98,90,75,30.19,29.53,31,18,36,0.64
2013-2-28,47,38,32,39,35,32,98,89,66,29.61,29.51,21,7,23,0.00
2013-3-1,39,36,33,33,31,30,91,81,69,29.66,29.52,16,8,19,0.00
2013-3-2,43,37,32,31,29,27,87,75,57,29.66,29.59,15,8,17,0.00
2013-3-3,39,34,30,34,30,26,95,85,70,29.63,29.54,20,10,22,0.00
2013-3-4,37,33,30,28,25,22,81,72,64,29.71,29.54,31,21,38,0.00
2013-3-5,42,36,31,36,30,23,92,79,67,30.07,29.71,22,10,26,0.00
2013-3-6,40,37,34,36,33,29,95,87,68,30.15,30.06,35,22,195,0.01
2013-3-7,36,33,30,33,30,27,95,87,77,30.12,30.00,38,22,43,0.00
2013-3-8,45,36,28,30,25,21,96,71,40,30.15,29.95,28,17,35,0.00
2013-3-9,39,36,31,33,27,22,92,72,50,30.35,30.15,21,9,25,0.00
2013-3-10,39,34,27,33,30,25,94,86,73,30.41,30.30,12,5,16,0.00
2013-3-11,49,40,34,40,35,31,93,84,58,30.33,30.14,18,7,20,0.00
2013-3-12,48,43,40,48,42,38,98,95,92,30.16,29.71,19,8,24,0.28
2013-3-13,50,44,37,49,34,23,98,71,42,29.76,29.67,22,11,27,0.00
2013-3-14,37,32,22,25,19,6,75,59,48,29.80,29.66,34,15,40,0.00
2013-3-15,39,28,18,29,13,5,82,55,29,29.84,29.60,36,16,40,0.00
2013-3-16,37,32,28,29,17,9,87,55,34,29.88,29.62,26,10,32,0.00
2013-3-17,33,29,24,20,11,1,71,49,30,30.32,29.88,35,13,36,0.00
2013-3-18,33,27,17,25,12,2,72,55,38,30.45,30.26,17,9,25,0.00
2013-3-19,34,32,30,33,30,25,100,95,71,30.25,29.64,37,17,42,0.06
2013-3-20,37,32,26,26,23,20,92,68,52,29.79,29.69,29,16,35,0.00
2013-3-21,34,30,26,29,22,19,92,72,56,29.79,29.60,12,6,14,0.00
2013-3-22,40,33,29,27,21,16,92,63,38,29.69,29.58,25,9,28,0.01
2013-3-23,42,35,28,24,21,18,75,58,40,29.74,29.59,36,19,42,0.00
2013-3-24,45,38,33,34,27,23,86,66,43,29.79,29.71,25,10,32,0.00
2013-3-25,39,35,30,35,31,24,89,83,76,29.77,29.55,21,10,23,0.00
2013-3-26,49,40,32,33,24,19,85,55,30,29.75,29.54,22,10,25,0.00
2013-3-27,51,42,35,35,28,23,87,59,38,29.86,29.71,21,12,27,0.00
2013-3-28,46,41,36,36,34,32,93,76,62,29.99,29.85,15,7,17,0.00
2013-3-29,53,46,40,37,34,30,76,63,42,30.02,29.94,18,10,21,0.00
2013-3-30,50,44,38,37,32,25,84,65,38,30.08,29.99,16,7,20,0.00
2013-3-31,55,42,31,40,32,23,85,70,37,30.11,29.78,25,7,32,0.00
2013-4-1,57,45,35,44,36,12,97,74,33,29.78,29.47,32,14,42,0.31
2013-4-2,38,34,30,18,14,9,55,44,33,29.90,29.75,41,20,49,0.00
2013-4-3,44,36,29,19,13,5,59,40,20,30.11,29.88,37,21,44,0.00
2013-4-4,54,42,30,31,17,10,63,40,19,30.26,29.99,28,13,30,0.00
2013-4-5,54,44,38,38,29,23,71,55,31,30.00,29.61,30,13,34,0.00
2013-4-6,44,36,29,25,13,3,70,40,20,30.33,29.85,40,16,45,0.00
2013-4-7,52,41,27,40,30,19,81,65,35,30.33,29.97,31,10,38,0.00
2013-4-8,58,48,44,42,40,34,88,74,42,30.10,29.92,19,8,23,0.00
2013-4-9,64,49,42,50,43,39,94,79,49,30.09,29.85,27,8,31,0.11
2013-4-10,50,46,43,45,43,41,96,91,83,30.00,29.85,13,4,15,0.50
2013-4-11,46,43,41,44,39,32,100,84,66,30.15,29.83,12,4,14,0.11
2013-4-12,43,38,36,37,33,29,95,81,59,30.20,29.81,27,16,30,0.35
2013-4-13,44,39,34,40,36,33,94,88,77,29.91,29.76,26,8,33,0.04
2013-4-14,51,45,40,40,34,28,92,67,41,30.19,29.91,26,10,29,0.00
2013-4-15,47,42,34,40,36,31,90,80,57,30.39,30.19,16,7,19,0.00
2013-4-16,64,50,39,52,42,35,89,75,52,30.40,30.00,31,14,35,0.00
2013-4-17,62,55,44,53,38,26,88,57,26,30.32,30.00,28,13,33,0.00
2013-4-18,52,46,38,43,39,34,89,76,54,30.45,30.15,20,7,23,0.00
2013-4-19,74,61,46,63,55,43,97,82,58,30.15,29.62,31,15,39,0.00
2013-4-20,68,53,44,63,40,24,93,65,36,30.18,29.57,29,16,36,0.22
2013-4-21,47,41,35,33,25,18,83,54,34,30.68,30.18,28,10,34,0.00
2013-4-22,46,40,32,37,33,28,87,75,63,30.79,30.61,16,9,19,0.00
2013-4-23,42,40,39,41,38,32,97,89,72,30.61,30.14,27,14,28,0.04
2013-4-24,58,49,41,53,46,40,99,89,71,30.14,29.77,25,13,30,0.01
2013-4-25,62,55,46,52,37,26,91,54,27,30.26,29.79,29,13,38,0.03
2013-4-26,48,46,44,42,38,30,93,73,51,30.43,30.26,14,6,16,0.00
2013-4-27,55,48,39,44,40,36,94,75,52,30.42,30.29,15,5,19,0.00
2013-4-28,53,49,41,46,42,38,89,76,64,30.35,30.23,17,6,21,0.00
2013-4-29,58,52,46,49,42,31,84,70,43,30.27,30.19,20,6,23,0.00
2013-4-30,61,53,46,44,38,24,80,58,24,30.37,30.24,14,6,16,0.00
2013-5-1,59,50,42,47,41,37,88,73,44,30.48,30.37,16,5,18,0.00
2013-5-2,63,50,44,49,43,40,91,78,51,30.49,30.37,21,5,27,0.00
2013-5-3,53,48,45,44,42,39,88,81,68,30.54,30.37,18,8,21,0.00
2013-5-4,49,46,41,46,41,39,95,83,73,30.39,30.32,11,5,15,0.00
2013-5-5,51,45,37,45,40,35,95,84,71,30.34,30.25,14,6,17,0.00
2013-5-6,51,46,38,48,44,37,97,94,86,30.29,30.16,14,4,17,0.00
2013-5-7,62,53,42,56,50,41,97,89,71,30.17,30.09,22,6,25,0.01
2013-5-8,61,56,53,56,54,51,96,92,83,30.23,30.07,12,4,16,0.04
2013-5-9,59,54,53,58,53,52,98,97,92,30.07,29.89,18,4,19,0.86
2013-5-10,59,56,53,58,54,53,100,96,91,29.95,29.88,16,5,19,0.00
2013-5-11,70,62,55,62,58,53,96,88,75,29.89,29.68,27,10,32,0.12
2013-5-12,69,60,50,60,50,30,100,75,39,29.78,29.54,30,9,33,0.06
2013-5-13,55,49,44,34,31,27,66,49,35,30.01,29.78,30,14,35,0.00
2013-5-14,57,49,41,37,32,25,79,53,31,30.04,29.93,23,10,28,0.00
2013-5-15,63,51,41,52,41,30,91,69,36,30.04,29.65,23,8,29,0.08
2013-5-16,78,65,50,51,43,34,95,53,22,29.79,29.58,37,14,43,0.00
2013-5-17,61,56,51,47,43,40,75,62,49,30.20,29.79,23,9,25,0.00
2013-5-18,60,52,46,52,48,42,94,84,57,30.30,30.20,13,4,16,0.00
2013-5-19,53,51,50,50,49,48,96,92,87,30.35,30.23,14,5,14,0.03
2013-5-20,75,60,51,64,57,50,98,89,65,30.23,29.90,16,5,19,0.06
2013-5-21,56,52,49,55,51,49,98,96,91,30.05,29.92,21,9,25,0.15
2013-5-22,52,51,49,51,50,49,99,98,96,30.05,29.87,18,4,19,1.31
2013-5-23,75,59,50,70,56,50,100,93,78,29.93,29.79,5,0,8,0.10
2013-5-24,68,61,50,65,59,50,98,93,76,29.82,29.63,0,0,1,0.75
2013-5-25,50,48,40,50,47,37,98,97,90,29.81,29.66,0,0,0,0.21
2013-5-26,56,47,39,42,39,37,97,76,55,30.05,29.65,0,0,0,0.01
2013-5-27,69,56,43,46,39,32,87,56,28,30.16,30.04,9,0,11,0.00
2013-5-28,61,55,46,52,47,39,95,76,44,30.24,30.16,11,4,13,0.00
2013-5-29,61,56,52,59,55,51,100,96,91,30.17,29.98,12,4,16,0.22
2013-5-30,86,73,56,67,63,55,98,74,44,30.04,29.97,8,1,9,0.01
2013-5-31,92,81,68,68,65,61,86,61,37,30.05,29.89,20,9,26,0.00
2013-6-1,92,82,72,69,65,57,80,59,32,29.93,29.80,23,12,26,0.00
2013-6-2,90,78,67,70,66,61,88,68,39,29.83,29.67,34,13,42,0.00
2013-6-3,77,68,62,66,62,49,95,81,51,29.83,29.72,18,8,23,0.14
2013-6-4,67,60,54,49,44,42,71,56,42,30.07,29.79,24,13,33,0.00
2013-6-5,64,58,51,53,48,38,84,69,40,30.17,30.07,20,7,24,0.00
2013-6-6,61,58,54,57,53,51,94,86,71,30.18,30.10,12,4,15,0.00
2013-6-7,57,54,52,54,52,51,97,93,83,30.11,29.83,19,8,23,1.53
2013-6-8,75,62,52,64,57,51,100,84,63,29.96,29.61,9,0,19,0.70
2013-6-9,77,68,57,60,56,52,94,69,43,30.13,29.96,11,1,14,0.00
2013-6-10,64,59,57,56,55,53,97,87,72,30.21,30.03,8,4,10,0.35
2013-6-11,58,55,54,56,54,52,97,96,88,30.03,29.57,6,0,9,1.40
2013-6-12,66,60,55,58,56,54,97,85,69,29.78,29.54,0,0,0,0.06
2013-6-13,66,59,55,57,54,52,94,84,69,29.79,29.70,6,0,9,0.19
2013-6-14,76,61,53,58,54,51,95,78,46,29.75,29.65,6,0,9,0.44
2013-6-15,76,67,59,56,49,41,85,57,30,29.90,29.75,22,8,26,0.00
2013-6-16,75,67,58,61,54,50,80,65,43,29.91,29.68,18,7,21,0.00
2013-6-17,82,69,62,63,60,56,93,75,42,29.88,29.73,39,9,44,0.02
2013-6-18,67,61,58,60,58,55,95,89,71,29.95,29.86,14,4,16,0.16
2013-6-19,67,62,55,56,53,49,96,74,53,30.12,29.91,15,7,18,0.00
2013-6-20,69,62,52,61,53,46,87,74,51,30.25,30.12,16,7,21,0.00
2013-6-21,77,69,60,64,59,53,85,73,47,30.22,30.17,17,7,17,0.00
2013-6-22,83,73,64,66,63,61,91,72,49,30.19,30.08,22,8,25,0.00
2013-6-23,89,73,65,73,65,60,89,76,58,30.13,29.93,23,7,28,0.08
2013-6-24,92,79,67,71,68,64,92,72,42,29.98,29.83,41,12,48,0.05
2013-6-25,89,77,68,71,68,66,96,75,48,29.89,29.69,25,10,30,0.32
2013-6-26,79,69,59,70,67,58,98,91,72,29.86,29.69,22,6,27,0.44
2013-6-27,61,59,58,61,59,57,98,98,97,29.88,29.77,14,3,15,0.09
2013-6-28,76,65,55,72,63,55,99,95,84,29.78,29.46,0,0,1,0.21
2013-6-29,82,72,65,71,67,64,98,86,62,29.68,29.50,0,0,1,0.00
2013-6-30,82,74,67,73,69,65,95,85,73,29.91,29.68,0,0,1,0.00
2013-7-1,74,69,65,71,68,64,98,95,87,30.06,29.91,1,0,1,2.91
2013-7-2,71,63,57,71,63,56,99,98,95,30.21,30.06,0,0,1,0.02
2013-7-3,84,66,57,74,63,57,100,91,68,30.21,30.08,0,0,1,0.01
2013-7-4,91,82,74,74,73,72,92,75,55,30.16,30.04,0,0,0,0.00
2013-7-5,92,84,77,75,74,72,87,72,54,30.12,29.98,13,2,18,0.00
2013-7-6,87,82,76,74,71,68,86,71,54,30.03,29.93,21,7,25,0.00
2013-7-7,88,78,70,70,67,64,87,70,49,29.98,29.88,16,6,21,0.00
2013-7-8,76,69,64,73,66,61,94,90,84,30.06,29.88,17,6,21,0.01
2013-7-9,67,65,63,63,62,61,97,91,85,30.11,30.04,10,2,13,0.00
2013-7-10,81,68,62,74,67,62,98,95,76,30.08,29.76,1,0,1,0.01
2013-7-11,81,75,69,74,71,67,96,89,74,29.92,29.73,0,0,1,0.06
2013-7-12,70,69,66,68,61,58,96,76,65,30.20,29.92,4,0,6,0.00
2013-7-13,70,67,65,67,63,60,94,86,75,30.32,30.19,8,2,10,0.00
2013-7-14,84,75,68,74,70,66,100,87,68,30.28,30.17,7,0,8,0.00
2013-7-15,85,78,71,73,71,69,94,79,65,30.18,30.06,10,1,15,0.00
2013-7-16,86,78,71,73,69,65,87,75,59,30.15,30.08,11,4,12,0.00
2013-7-17,85,79,70,75,72,68,94,80,66,30.16,29.96,21,7,23,0.00
2013-7-18,83,76,72,73,70,68,93,84,68,30.00,29.92,17,6,17,0.00
2013-7-19,94,84,70,78,73,69,96,73,48,29.92,29.66,29,10,33,0.00
2013-7-20,88,82,73,78,71,66,87,68,57,29.78,29.62,29,10,46,0.16
2013-7-21,76,70,66,67,65,62,93,83,69,29.99,29.78,11,5,14,0.00
2013-7-22,73,68,66,68,66,65,97,92,81,30.03,29.90,12,5,13,0.00
2013-7-23,71,68,66,70,67,65,98,97,93,29.89,29.53,14,2,17,1.02
2013-7-24,82,73,65,74,66,54,99,80,55,29.96,29.57,1,0,2,0.07
2013-7-25,65,61,60,60,54,50,95,79,70,30.11,29.96,16,8,19,0.10
2013-7-26,71,66,61,66,63,59,95,90,80,30.05,29.89,18,1,21,0.04
2013-7-27,80,71,62,68,63,58,91,78,49,30.02,29.95,14,2,18,0.00
2013-7-28,69,66,63,66,64,63,98,94,86,30.01,29.97,18,3,21,0.03
2013-7-29,75,66,63,71,65,63,98,96,84,30.04,29.94,5,0,9,0.00
2013-7-30,79,71,63,66,61,53,97,73,42,30.08,30.01,1,0,1,0.00
2013-7-31,74,68,61,65,61,58,92,80,63,30.12,30.03,7,0,14,0.00
2013-8-1,75,69,63,68,64,61,96,85,71,30.03,29.87,9,0,15,0.00
2013-8-2,81,71,64,68,63,57,96,77,44,29.87,29.75,17,1,22,0.15
2013-8-3,79,71,64,63,61,57,90,71,51,29.84,29.74,24,4,26,0.00
2013-8-4,76,68,61,59,57,54,83,67,49,29.86,29.75,19,10,24,0.00
2013-8-5,74,64,58,54,48,39,84,59,30,30.03,29.86,26,13,36,0.00
2013-8-6,70,63,53,59,54,46,88,72,55,30.15,30.03,12,5,15,0.00
2013-8-7,71,65,55,64,59,53,94,82,69,30.18,30.10,17,6,20,0.00
2013-8-8,80,72,64,71,65,56,91,80,70,30.12,29.98,25,10,26,0.00
2013-8-9,73,71,65,72,69,64,98,95,89,30.01,29.70,26,7,28,1.34
2013-8-10,80,73,63,71,61,50,98,69,36,30.00,29.76,17,2,20,0.00
2013-8-11,77,67,56,60,54,51,89,66,42,30.06,29.98,21,2,25,0.00
2013-8-12,80,69,59,62,57,51,90,69,44,30.01,29.89,14,6,17,0.00
2013-8-13,70,66,64,66,64,61,98,90,81,29.90,29.67,12,4,15,0.01
2013-8-14,72,66,61,64,55,51,98,69,48,29.93,29.64,32,9,32,0.01
2013-8-15,74,65,54,56,52,48,85,65,42,30.09,29.93,24,8,25,0.00
2013-8-16,76,66,54,60,55,51,88,69,42,30.17,30.08,18,6,24,0.00
2013-8-17,70,64,56,61,58,54,92,81,68,30.27,30.17,14,4,14,0.00
2013-8-18,76,66,57,64,60,56,95,81,56,30.26,30.05,14,4,18,0.00
2013-8-19,79,71,62,63,61,59,91,72,52,30.05,29.91,19,9,21,0.00
2013-8-20,79,72,64,66,63,60,89,75,58,30.06,29.95,13,6,16,0.00
2013-8-21,81,73,65,68,65,62,89,76,62,30.12,29.99,12,5,16,0.00
2013-8-22,85,76,68,71,67,63,88,73,50,30.00,29.78,19,10,24,0.00
2013-8-23,74,70,64,69,60,51,89,72,51,30.12,29.79,19,8,21,0.00
2013-8-24,70,63,54,56,50,46,86,65,44,30.31,30.12,12,6,16,0.00
2013-8-25,74,65,54,60,54,48,88,70,46,30.35,30.15,15,6,18,0.00
2013-8-26,79,69,65,66,60,56,84,72,66,30.15,29.90,20,11,25,0.00
2013-9-6,68,60,56,51,48,43,78,66,41,30.11,30.06,9,1,12,0.00
2013-9-7,76,64,53,59,52,48,86,66,43,30.06,29.81,12,2,17,0.00
2013-9-8,69,64,53,59,51,42,78,64,47,30.08,29.72,31,11,34,0.00
2013-9-9,67,57,47,55,45,40,85,66,40,30.22,30.07,16,7,20,0.00
2013-9-10,64,58,56,59,53,50,85,82,77,30.13,30.08,15,9,17,0.00
2013-9-18,72,64,59,51,50,46,75,61,40,30.13,30.11,7,4,11,0.00
2013-9-19,67,59,52,58,52,48,92,79,58,30.12,30.02,8,2,11,0.00
2013-9-20,64,59,51,60,55,50,97,89,69,30.09,30.00,8,2,10,0.00
2013-9-21,74,62,54,64,58,53,97,89,68,30.01,29.73,16,2,22,0.01
2013-9-22,68,63,53,62,56,44,95,81,53,29.79,29.58,24,2,29,0.02
2013-9-23,58,52,46,45,42,40,82,70,57,29.97,29.79,23,5,27,0.00
2013-9-24,61,52,46,49,43,40,87,74,52,29.97,29.80,19,2,25,0.00
2013-9-25,58,53,46,52,48,44,94,82,70,29.98,29.86,11,2,12,0.00
2013-9-26,60,56,51,53,50,47,91,80,72,30.12,29.98,13,2,15,0.00
2013-9-27,65,58,53,54,51,48,93,78,55,30.24,30.11,13,2,14,0.00
2013-9-28,62,56,51,57,53,49,97,89,74,30.33,30.23,14,2,16,0.00
2013-9-29,60,53,47,55,50,46,98,92,76,30.26,30.12,9,0,11,0.01
2013-9-30,59,52,46,55,50,46,100,95,84,30.13,29.96,5,0,7,0.00
2013-10-1,71,59,48,58,52,46,97,81,52,29.96,29.83,1,0,1,0.00
2013-10-2,78,67,58,62,58,54,90,74,53,29.91,29.78,1,0,7,0.00
2013-10-3,75,65,57,59,53,46,89,69,37,30.06,29.92,9,0,11,0.00
2013-10-4,64,59,53,58,54,49,95,84,63,30.08,30.02,10,0,12,0.00
2013-10-5,60,58,56,56,55,54,95,89,81,30.12,30.04,15,4,18,0.00
2013-10-6,58,56,53,56,54,48,97,91,77,30.25,30.11,19,8,21,0.14
2013-10-7,74,64,57,68,61,55,98,93,77,30.15,29.79,8,0,16,0.09
2013-10-8,63,57,48,55,46,40,85,68,43,30.37,29.86,20,2,27,0.00
2013-10-9,56,50,42,48,45,40,95,83,73,30.48,30.36,13,4,15,0.00
2013-10-10,56,50,44,52,48,42,96,90,83,30.36,30.18,8,3,9,0.00
2013-10-11,60,54,48,55,51,47,96,89,78,30.18,30.10,8,1,11,0.00
2013-10-12,56,54,50,55,51,48,95,91,84,30.40,30.15,22,2,22,0.00
2013-10-13,57,51,45,50,47,43,96,85,69,30.45,30.38,9,2,11,0.00
2013-10-14,59,50,39,52,45,38,97,85,59,30.40,30.24,14,2,18,0.01
2013-10-15,58,56,52,56,53,50,96,92,88,30.26,30.18,12,1,14,0.00
2013-10-16,57,56,52,55,54,51,97,93,88,30.18,29.90,10,1,11,0.00
2013-10-17,73,61,53,59,54,48,100,81,43,29.92,29.69,13,0,16,0.00
2013-10-18,66,61,54,59,51,40,97,72,49,29.88,29.58,27,3,32,0.07
2013-10-19,64,56,46,52,45,39,82,68,46,29.95,29.75,12,2,19,0.00
2013-10-20,60,55,49,51,42,35,87,64,41,29.99,29.67,27,10,32,0.00
2013-10-21,64,52,41,52,43,37,87,73,46,30.10,29.98,13,5,17,0.00
2013-10-22,63,55,48,52,47,38,92,75,58,29.98,29.69,20,8,26,0.00
2013-10-23,52,47,40,39,36,34,85,66,51,29.78,29.58,14,4,16,0.00
2013-10-24,51,46,41,37,32,28,78,59,41,29.85,29.60,32,14,36,0.00
2013-10-25,47,42,35,35,31,26,84,67,45,30.13,29.86,26,9,28,0.00
2013-10-26,54,45,35,36,32,26,87,62,35,30.13,29.87,28,10,32,0.00
2013-10-27,53,47,41,41,35,29,89,65,44,30.03,29.80,24,10,29,0.02
2013-10-28,56,45,37,37,33,27,79,63,45,30.34,30.03,27,12,33,0.00
2013-10-29,46,37,30,34,29,25,89,73,54,30.44,30.34,10,4,11,0.00
2013-10-30,48,39,34,39,34,25,91,83,53,30.36,30.19,12,2,16,0.01
2013-10-31,62,47,34,58,45,32,97,93,85,30.23,29.77,21,5,28,0.06
2013-11-1,71,65,59,62,58,54,95,79,62,29.77,29.38,40,15,54,0.00
2013-11-2,62,55,50,54,46,42,88,74,52,29.71,29.58,31,5,33,0.00
2013-11-3,52,42,33,47,34,21,93,73,48,30.42,29.71,24,10,27,0.02
2013-11-4,41,34,28,28,22,16,82,64,40,30.71,30.42,17,6,19,0.00
2013-11-5,48,38,29,36,30,23,84,73,57,30.71,30.50,13,6,17,0.00
2013-11-6,60,49,41,49,42,34,83,75,57,30.51,30.00,19,9,21,0.00
2013-11-7,64,54,41,58,49,35,92,83,73,30.00,29.64,25,12,32,0.10
2013-11-8,46,40,35,36,30,25,83,68,53,30.05,29.79,27,12,37,0.00
2013-11-9,43,40,35,31,26,22,69,57,45,30.17,30.04,24,11,30,0.00
2013-11-10,51,46,40,43,37,31,94,74,62,30.03,29.72,22,9,26,0.00
2013-11-11,49,45,40,35,30,26,70,56,42,30.07,29.80,26,14,31,0.00
2013-11-12,48,37,28,35,25,16,68,61,55,30.17,29.85,29,15,34,0.00
2013-11-13,34,29,25,19,16,13,70,58,42,30.27,30.13,25,12,28,0.00
2013-11-14,51,40,28,30,24,17,68,55,43,30.13,30.00,26,10,31,0.00
2013-11-15,58,45,36,36,26,20,74,49,23,30.17,30.08,16,4,19,0.00
2013-11-16,50,43,36,41,35,29,93,73,44,30.32,30.16,6,1,7,0.00
2013-11-17,51,43,34,50,42,33,100,97,93,30.32,29.86,9,3,13,0.08
2013-11-18,64,56,50,61,46,33,98,73,44,29.86,29.49,27,10,30,0.01
2013-11-19,50,39,33,34,23,18,64,53,45,30.25,29.62,34,20,40,0.00
2013-11-20,40,34,28,21,17,14,64,52,35,30.62,30.25,23,12,33,0.00
2013-11-21,45,36,25,27,21,14,77,57,32,30.63,30.36,15,4,18,0.00
2013-11-22,42,40,38,40,37,26,97,87,62,30.35,29.79,10,4,11,0.13
2013-11-23,44,38,30,43,29,15,97,71,45,29.88,29.74,32,15,40,0.00
2013-11-24,30,24,20,21,8,-2,84,53,37,30.15,29.75,48,29,59,0.02
2013-11-25,31,24,18,16,3,-7,54,40,23,30.33,30.15,40,15,41,0.00
2013-11-26,43,34,28,42,25,16,96,71,54,30.32,30.07,13,5,16,0.12
2013-11-27,59,48,37,58,46,32,98,94,79,30.07,29.19,32,13,38,0.92
2013-11-28,38,32,24,32,18,7,82,57,37,30.42,29.39,35,20,41,0.00
2013-11-29,30,24,20,14,10,2,73,55,31,30.74,30.41,21,11,26,0.00
2013-11-30,33,25,16,24,17,10,87,73,58,30.79,30.43,11,5,13,0.00
2013-12-1,38,35,30,37,32,22,97,89,72,30.43,30.01,12,4,15,0.13
2013-12-2,39,37,36,37,36,35,97,95,92,30.01,29.91,11,7,15,0.00
2013-12-3,46,38,35,38,35,31,97,89,70,29.93,29.83,14,6,16,0.00
2013-12-4,40,36,32,32,29,25,88,76,63,30.19,29.92,18,8,21,0.00
2013-12-5,47,40,32,45,38,28,98,92,81,30.22,29.90,11,3,12,0.02
2013-12-6,48,46,42,46,44,39,100,92,79,30.15,29.83,17,2,21,0.01
2013-12-7,48,48,48,45,45,45,89,89,89,30.44,30.07,0,0,1,0.00
2013-12-8,48,48,48,45,45,45,89,89,89,30.58,30.43,0,0,1,0.00
2013-12-9,48,48,48,45,45,45,89,89,89,30.50,29.86,0,0,1,0.00
2013-12-10,48,48,48,45,45,45,89,89,89,29.95,29.75,0,0,1,0.00
2013-12-11,48,48,48,45,45,45,89,89,89,30.17,29.95,0,0,1,0.00
2013-12-12,48,48,48,45,45,45,89,89,89,30.25,30.03,0,0,1,0.00
2013-12-13,48,48,48,45,45,45,89,89,89,30.40,29.95,0,0,1,0.00
2013-12-14,48,48,48,45,45,45,89,89,89,30.59,30.40,0,0,1,0.00
2013-12-15,48,48,48,45,45,45,89,89,89,30.59,30.59,0,0,1,0.00
2013-12-16,48,48,48,45,45,45,89,89,89,30.59,30.59,0,0,1,0.00
2013-12-17,65,54,48,45,40,29,89,66,31,30.59,29.96,0,0,6,0.03
2013-12-18,63,61,59,39,33,28,43,36,30,30.04,29.85,0,0,9,0.00
2013-12-19,64,52,34,40,31,23,69,46,30,30.09,29.93,10,3,13,0.01
2013-12-20,47,39,33,38,32,26,90,75,68,30.11,29.88,13,2,13,0.00
2013-12-21,58,47,38,46,40,34,92,77,64,29.93,29.82,15,4,17,0.00
2013-12-22,48,35,30,45,34,30,97,96,87,30.05,29.80,24,9,26,0.06
2013-12-23,37,32,29,36,31,29,97,97,95,30.11,29.97,11,5,16,0.38
2013-12-24,36,32,25,34,24,12,96,73,53,30.19,30.04,21,9,29,0.00
2013-12-25,25,18,10,14,6,-1,72,59,47,30.56,30.19,27,10,35,0.00
2013-12-26,32,24,19,31,20,9,95,84,58,30.51,30.06,13,4,16,0.00
2013-12-27,33,28,21,23,21,19,92,76,60,30.24,30.17,21,10,29,0.00
2013-12-28,46,35,24,31,26,20,85,71,51,30.18,29.94,19,9,24,0.00
2013-12-29,41,36,31,40,32,26,97,84,70,30.01,29.42,24,6,30,0.90
2013-12-30,42,32,15,35,24,0,97,73,40,30.18,29.49,30,14,33,0.00
2013-12-31,24,15,9,15,4,-3,79,60,40,30.18,30.02,17,8,19,0.00
2014-1-1,24,21,18,12,9,6,69,60,47,30.39,30.16,27,12,30,0.00
2014-1-2,21,9,-1,14,5,-5,90,84,65,30.38,29.91,28,17,33,0.00